Time;durP1;ratioP1;P1;durP2;ratioP2;P2;SDS_P1;SDS_P2;PMS_P1;PMS_P2;Temp;Humidity;BMP_temperature;BMP_pressure;BME280_temperature;BME280_humidity;BME280_pressure;Samples;Min_cycle;Max_cycle;Signal;HPM_P1;HPM_P2
2022/06/27 00:02:21;;;;;;;19.92;14.35;;;;;;;16.93;88.45;100234.22;10136931;29;20510;-78
2022/06/27 00:07:26;;;;;;;22.33;16.23;;;;;;;16.69;88.08;100258.63;10135380;29;20059;-77
2022/06/27 00:12:29;;;;;;;25.20;18.50;;;;;;;16.74;88.75;100237.28;10093791;29;20048;-78
2022/06/27 00:17:31;;;;;;;20.58;15.77;;;;;;;16.65;88.38;100276.22;10096080;29;20538;-78
2022/06/27 00:22:36;;;;;;;19.65;15.18;;;;;;;16.68;88.29;100275.91;10100529;29;20398;-78
2022/06/27 00:27:39;;;;;;;21.88;16.58;;;;;;;16.81;89.42;100268.09;10132918;29;20062;-79
2022/06/27 00:32:42;;;;;;;29.92;18.63;;;;;;;17.02;89.64;100264.91;10135333;29;20062;-77
2022/06/27 00:37:46;;;;;;;20.75;16.73;;;;;;;16.51;88.65;100293.97;10134337;29;20151;-77
2022/06/27 00:42:49;;;;;;;20.08;15.23;;;;;;;16.59;88.56;100299.44;10129308;29;20052;-78
2022/06/27 00:47:52;;;;;;;20.02;16.10;;;;;;;16.66;89.16;100300.47;10121369;29;20047;-79
2022/06/27 00:52:57;;;;;;;23.92;17.75;;;;;;;16.80;88.67;100321.53;10144777;29;20142;-78
2022/06/27 00:58:03;;;;;;;30.67;17.70;;;;;;;16.65;88.96;100317.78;10145431;29;20200;-77
2022/06/27 01:03:06;;;;;;;26.45;18.35;;;;;;;16.87;89.53;100294.59;10143647;29;20064;-78
2022/06/27 01:08:11;;;;;;;23.85;18.35;;;;;;;17.09;89.68;100303.09;10144285;29;20059;-76
2022/06/27 01:13:15;;;;;;;21.40;17.13;;;;;;;17.17;88.92;100322.97;10106265;29;20056;-77
2022/06/27 01:18:18;;;;;;;19.50;16.30;;;;;;;16.81;88.16;100336.81;10122599;29;20159;-77
2022/06/27 01:23:22;;;;;;;24.88;17.88;;;;;;;16.76;89.03;100351.88;10144551;29;21290;-79
2022/06/27 01:28:25;;;;;;;20.20;16.25;;;;;;;16.51;89.59;100354.50;10146100;29;20071;-78
2022/06/27 01:33:31;;;;;;;23.75;17.60;;;;;;;16.62;89.56;100356.06;10132524;29;20112;-77
2022/06/27 01:38:36;;;;;;;25.27;17.75;;;;;;;16.55;89.85;100366.72;10148352;29;20127;-78
2022/06/27 01:43:39;;;;;;;34.67;18.23;;;;;;;16.25;91.03;100353.69;10143834;29;20059;-78
2022/06/27 01:48:45;;;;;;;30.10;19.42;;;;;;;16.41;91.84;100353.78;10127655;29;20078;-78
2022/06/27 01:53:52;;;;;;;30.17;22.55;;;;;;;16.58;95.17;100343.84;10145140;29;20048;-77
2022/06/27 01:58:57;;;;;;;27.17;20.75;;;;;;;16.64;91.99;100336.91;10121674;29;20174;-77
2022/06/27 02:04:00;;;;;;;62.38;25.15;;;;;;;16.85;91.37;100333.75;10121117;29;20051;-77
2022/06/27 02:09:09;;;;;;;32.17;21.77;;;;;;;16.55;89.85;100336.03;10119595;29;20406;-78
2022/06/27 02:14:12;;;;;;;41.63;24.80;;;;;;;16.90;91.12;100328.69;10147961;29;20419;-78
2022/06/27 02:19:18;;;;;;;38.30;26.55;;;;;;;16.80;89.98;100326.09;10146211;29;20048;-79
2022/06/27 02:24:22;;;;;;;42.67;26.23;;;;;;;16.75;90.39;100314.91;10139134;29;20214;-77
2022/06/27 02:29:25;;;;;;;47.38;28.10;;;;;;;16.81;89.90;100319.66;10130072;29;20064;-77
2022/06/27 02:34:28;;;;;;;35.03;23.20;;;;;;;16.68;89.22;100305.75;10123941;29;20187;-78
2022/06/27 02:39:40;;;;;;;33.25;23.50;;;;;;;16.22;91.02;100292.50;10120814;29;20103;-77
2022/06/27 02:44:44;;;;;;;43.28;26.10;;;;;;;16.28;92.79;100272.06;10136058;29;20495;-78
2022/06/27 02:49:48;;;;;;;53.88;30.00;;;;;;;16.62;91.37;100249.44;10137195;29;20052;-78
2022/06/27 02:55:00;;;;;;;51.10;29.30;;;;;;;16.63;90.50;100243.88;10136743;29;20067;-77
2022/06/27 03:00:07;;;;;;;46.50;28.58;;;;;;;16.46;90.49;100243.00;10135118;29;20486;-77
2022/06/27 03:05:11;;;;;;;52.67;29.75;;;;;;;16.70;90.63;100238.59;10117153;29;20135;-78
2022/06/27 03:10:16;;;;;;;51.33;29.95;;;;;;;16.85;89.88;100247.78;10132555;29;20052;-77
2022/06/27 03:15:22;;;;;;;50.85;29.65;;;;;;;16.92;90.36;100239.81;10127791;29;20348;-79
2022/06/27 03:20:27;;;;;;;40.10;27.10;;;;;;;16.81;90.18;100224.72;10135137;29;20063;-79
2022/06/27 03:25:48;;;;;;;42.80;28.25;;;;;;;16.91;90.50;100179.28;10140145;29;20056;-78
2022/06/27 03:30:51;;;;;;;41.17;28.08;;;;;;;16.91;89.96;100163.00;10134779;29;20078;-78
2022/06/27 03:35:55;;;;;;;44.03;29.52;;;;;;;16.93;90.18;100139.28;10144413;29;20056;-78
2022/06/27 03:41:00;;;;;;;44.63;26.67;;;;;;;16.97;90.06;100150.63;10135180;29;20548;-78
2022/06/27 03:46:03;;;;;;;42.85;26.67;;;;;;;16.92;90.12;100143.00;10119065;29;20071;-78
2022/06/27 03:51:06;;;;;;;52.80;32.97;;;;;;;16.95;90.03;100139.09;10144932;29;20062;-77
2022/06/27 03:56:10;;;;;;;46.53;30.60;;;;;;;16.74;90.19;100158.63;10146462;29;20597;-76
2022/06/27 04:01:13;;;;;;;57.95;34.95;;;;;;;16.91;90.52;100171.13;10120469;29;20195;-75
2022/06/27 04:06:18;;;;;;;55.90;33.40;;;;;;;17.02;90.35;100180.81;10136196;29;20172;-78
2022/06/27 04:11:23;;;;;;;67.40;36.03;;;;;;;17.11;90.11;100152.63;10117966;29;20059;-78
2022/06/27 04:16:29;;;;;;;63.50;36.63;;;;;;;16.93;90.34;100158.25;10116861;29;20088;-77
2022/06/27 04:21:35;;;;;;;64.80;38.05;;;;;;;16.98;90.33;100172.16;10135108;29;20718;-78
2022/06/27 04:26:48;;;;;;;67.22;36.75;;;;;;;17.07;90.49;100178.41;10132176;29;20056;-77
2022/06/27 04:31:51;;;;;;;69.00;39.10;;;;;;;17.19;90.58;100206.06;10097757;29;20482;-78
2022/06/27 04:36:54;;;;;;;59.60;34.70;;;;;;;17.27;90.35;100183.50;10077947;29;21195;-77
2022/06/27 04:42:02;;;;;;;61.97;36.53;;;;;;;17.38;90.68;100175.84;10105134;29;20497;-77
2022/06/27 04:47:08;;;;;;;49.70;32.97;;;;;;;17.44;90.48;100187.88;10094132;29;21211;-77
2022/06/27 04:52:34;;;;;;;43.90;29.35;;;;;;;17.17;90.40;100198.13;10116152;29;20123;-77
2022/06/27 04:57:40;;;;;;;54.33;33.20;;;;;;;17.07;90.63;100191.16;10135054;29;20044;-76
2022/06/27 05:02:45;;;;;;;56.53;31.85;;;;;;;16.85;90.41;100195.41;10119788;29;20067;-79
2022/06/27 05:07:48;;;;;;;53.92;35.08;;;;;;;16.86;91.00;100210.66;10123137;29;20131;-76
2022/06/27 05:12:52;;;;;;;72.85;37.83;;;;;;;17.01;90.65;100223.38;10125846;29;20071;-78
2022/06/27 05:17:55;;;;;;;54.28;33.20;;;;;;;17.14;90.37;100232.88;10119009;29;20074;-78
2022/06/27 05:23:00;;;;;;;53.30;30.45;;;;;;;16.70;90.31;100255.75;10127376;29;20449;-76
2022/06/27 05:28:05;;;;;;;60.50;34.28;;;;;;;16.83;91.23;100254.41;10131451;29;20127;-78
2022/06/27 05:33:07;;;;;;;63.25;34.75;;;;;;;16.48;91.89;100250.94;10103746;29;20067;-77
2022/06/27 05:38:11;;;;;;;53.38;33.53;;;;;;;16.72;90.55;100245.56;10129243;29;20056;-78
2022/06/27 05:43:17;;;;;;;68.22;33.88;;;;;;;16.82;90.44;100264.41;10141748;29;20295;-77
2022/06/27 05:48:21;;;;;;;63.10;33.33;;;;;;;16.68;91.57;100257.78;10136373;29;20051;-79
2022/06/27 05:53:39;;;;;;;76.88;38.83;;;;;;;17.07;91.10;100256.28;10145381;29;20048;-78
2022/06/27 05:58:44;;;;;;;72.47;36.08;;;;;;;16.52;92.06;100255.03;10142098;29;20147;-78
2022/06/27 06:03:48;;;;;;;80.30;39.90;;;;;;;17.23;91.47;100210.16;10117897;29;20587;-78
2022/06/27 06:08:52;;;;;;;56.65;29.40;;;;;;;17.47;90.99;100218.25;10153059;29;20131;-78
2022/06/27 06:13:56;;;;;;;48.63;29.50;;;;;;;17.31;90.63;100229.16;10143661;29;21211;-78
2022/06/27 06:18:59;;;;;;;29.33;18.95;;;;;;;17.45;91.72;100236.56;10144760;29;20123;-77
2022/06/27 06:24:02;;;;;;;21.95;17.23;;;;;;;17.81;91.37;100247.00;10143221;29;20135;-78
2022/06/27 06:29:12;;;;;;;19.17;14.68;;;;;;;18.04;91.73;100247.09;10144811;29;20134;-77
2022/06/27 06:34:18;;;;;;;27.27;23.10;;;;;;;18.25;91.11;100256.53;10116319;29;20490;-77
2022/06/27 06:39:21;;;;;;;18.40;14.52;;;;;;;18.23;91.04;100273.03;10140364;29;20048;-78
2022/06/27 06:44:25;;;;;;;29.45;24.15;;;;;;;18.36;92.05;100267.84;10143843;29;20048;-77
2022/06/27 06:49:49;;;;;;;24.90;22.02;;;;;;;18.61;92.43;100265.00;10121552;29;20040;-77
2022/06/27 06:54:52;;;;;;;17.05;14.73;;;;;;;18.80;92.33;100261.84;10141161;29;20044;-77
2022/06/27 06:59:56;;;;;;;19.13;14.93;;;;;;;19.01;92.85;100242.13;10140894;29;20598;-77
2022/06/27 07:05:02;;;;;;;19.48;17.42;;;;;;;19.10;90.80;100281.00;10140456;29;20048;-77
2022/06/27 07:10:06;;;;;;;14.95;13.35;;;;;;;19.12;91.83;100280.84;10139798;29;20056;-76
2022/06/27 07:15:11;;;;;;;23.55;19.25;;;;;;;19.23;91.81;100280.41;10140243;29;20714;-77
2022/06/27 07:20:19;;;;;;;21.15;18.15;;;;;;;19.22;88.63;100293.13;10137879;29;20160;-77
2022/06/27 07:25:22;;;;;;;24.73;19.50;;;;;;;18.90;88.70;100304.31;10138980;29;20055;-77
2022/06/27 07:30:26;;;;;;;25.88;19.13;;;;;;;18.53;90.43;100300.41;10135497;29;20813;-76
2022/06/27 07:35:29;;;;;;;26.92;20.30;;;;;;;18.48;88.00;100298.22;10134873;29;20395;-76
2022/06/27 07:40:34;;;;;;;28.90;24.15;;;;;;;18.82;89.41;100309.81;10136531;29;20075;-77
2022/06/27 07:45:39;;;;;;;24.42;20.48;;;;;;;18.24;87.11;100312.78;10136355;29;20600;-78
2022/06/27 07:50:42;;;;;;;21.75;17.38;;;;;;;18.62;88.15;100317.53;10143912;29;20056;-78
2022/06/27 07:55:50;;;;;;;34.63;23.73;;;;;;;17.66;86.83;100331.09;10144036;29;20783;-78
2022/06/27 08:00:54;;;;;;;44.35;27.77;;;;;;;18.16;89.67;100318.25;10139791;29;20500;-76
2022/06/27 08:05:57;;;;;;;44.65;30.20;;;;;;;18.66;88.85;100305.28;10135937;29;20052;-77
2022/06/27 08:11:01;;;;;;;41.60;25.55;;;;;;;17.90;87.10;100319.31;10139258;29;20058;-76
2022/06/27 08:16:06;;;;;;;37.22;24.08;;;;;;;18.13;86.42;100314.03;10134697;29;20050;-76
2022/06/27 08:21:10;;;;;;;39.72;24.73;;;;;;;17.60;87.94;100320.06;10140014;29;20098;-77
2022/06/27 08:26:13;;;;;;;26.70;19.80;;;;;;;18.45;88.06;100322.19;10132859;29;20608;-76
2022/06/27 08:31:18;;;;;;;30.23;21.98;;;;;;;18.97;87.14;100319.72;10135693;29;20063;-76
2022/06/27 08:36:31;;;;;;;45.13;30.02;;;;;;;20.03;89.34;100303.44;10134938;29;20051;-76
2022/06/27 08:41:36;;;;;;;29.33;21.25;;;;;;;20.90;88.63;100300.78;10132881;29;21267;-76
2022/06/27 08:46:45;;;;;;;43.33;28.00;;;;;;;21.15;86.70;100284.03;10135129;29;20111;-76
2022/06/27 08:51:49;;;;;;;43.75;29.48;;;;;;;22.02;83.45;100280.03;10135180;29;20060;-76
2022/06/27 08:56:53;;;;;;;32.58;24.95;;;;;;;22.05;81.80;100294.19;10114130;29;20123;-76
2022/06/27 09:01:57;;;;;;;35.83;26.40;;;;;;;22.39;72.29;100306.13;10123545;29;20204;-77
2022/06/27 09:07:00;;;;;;;23.13;17.88;;;;;;;22.85;82.03;100299.16;10140340;29;20044;-78
2022/06/27 09:12:05;;;;;;;29.95;24.58;;;;;;;23.29;74.76;100292.28;10150067;29;20407;-78
2022/06/27 09:17:13;;;;;;;31.58;24.48;;;;;;;22.42;73.40;100305.69;10148338;29;20453;-77
2022/06/27 09:22:17;;;;;;;33.45;22.80;;;;;;;22.24;78.53;100316.34;10145731;29;20055;-78
2022/06/27 09:27:37;;;;;;;32.97;23.45;;;;;;;20.23;73.57;100341.88;10147096;29;20060;-78
2022/06/27 09:32:41;;;;;;;36.00;25.00;;;;;;;20.35;76.70;100356.78;10144218;29;20433;-78
2022/06/27 09:37:51;;;;;;;32.53;25.20;;;;;;;20.43;73.99;100353.97;10148628;29;20123;-78
2022/06/27 09:42:56;;;;;;;30.65;20.63;;;;;;;20.42;77.28;100343.22;10146096;29;20093;-78
2022/06/27 09:48:02;;;;;;;32.97;24.58;;;;;;;20.54;74.51;100339.84;10144411;29;20052;-78
2022/06/27 09:53:06;;;;;;;32.83;22.35;;;;;;;19.88;75.58;100358.81;10138417;29;20521;-78
2022/06/27 09:58:12;;;;;;;32.55;22.50;;;;;;;19.99;75.75;100365.66;10138056;29;20052;-78
2022/06/27 10:03:17;;;;;;;30.30;22.70;;;;;;;20.74;73.37;100374.72;10142806;29;20502;-78
2022/06/27 10:08:20;;;;;;;34.00;23.10;;;;;;;20.78;75.74;100367.81;10142562;29;20054;-78
2022/06/27 10:13:23;;;;;;;24.25;19.67;;;;;;;20.36;75.87;100374.00;10141726;29;21477;-78
2022/06/27 10:18:27;;;;;;;31.17;23.92;;;;;;;19.86;75.02;100374.50;10151570;29;21277;-78
2022/06/27 10:23:32;;;;;;;27.95;20.00;;;;;;;20.03;74.10;100358.81;10142582;29;20207;-78
2022/06/27 10:28:36;;;;;;;26.17;21.30;;;;;;;21.45;70.17;100369.41;10139530;29;20139;-78
2022/06/27 10:33:41;;;;;;;22.73;18.40;;;;;;;21.93;70.22;100366.88;10150905;29;20664;-78
2022/06/27 10:38:50;;;;;;;27.33;20.08;;;;;;;22.09;66.14;100352.03;10134227;29;20051;-77
2022/06/27 10:43:54;;;;;;;32.95;22.70;;;;;;;21.59;68.42;100359.44;10143804;29;20439;-80
2022/06/27 10:48:59;;;;;;;29.60;21.38;;;;;;;20.33;71.88;100370.59;10141258;29;20147;-78
2022/06/27 10:54:11;;;;;;;34.83;25.80;;;;;;;20.33;73.53;100376.06;10135706;29;20056;-77
2022/06/27 11:00:00;;;;;;;33.93;22.90;;;;;;;19.72;75.32;100388.09;10152656;29;20512;-77
2022/06/27 11:05:05;;;;;;;20.85;15.93;;;;;;;19.61;76.71;100378.47;10148935;29;20044;-78
2022/06/27 11:10:09;;;;;;;41.00;29.15;;;;;;;19.35;77.40;100387.00;10135843;29;20671;-77
2022/06/27 11:15:12;;;;;;;38.50;27.23;;;;;;;19.06;76.92;100393.16;10144059;29;20052;-77
2022/06/27 11:20:22;;;;;;;39.50;29.30;;;;;;;19.41;78.18;100392.56;10142526;29;20126;-77
2022/06/27 11:25:49;;;;;;;43.28;30.95;;;;;;;19.65;75.63;100401.59;10144922;29;21249;-77
2022/06/27 11:36:15;;;;;;;41.35;28.92;;;;;;;19.16;76.39;100410.09;10142960;29;20052;-77
2022/06/27 11:41:26;;;;;;;41.13;27.27;;;;;;;19.40;76.18;100398.19;10134559;29;20074;-77
2022/06/27 11:46:34;;;;;;;49.10;31.90;;;;;;;19.21;77.18;100402.25;10142554;29;20052;-77
2022/06/27 11:51:40;;;;;;;38.30;28.38;;;;;;;18.99;77.50;100415.66;10121382;29;20047;-78
2022/06/27 11:56:45;;;;;;;41.47;26.73;;;;;;;18.77;78.31;100414.53;10142530;29;20079;-77
2022/06/27 12:01:52;;;;;;;28.98;22.00;;;;;;;18.70;80.31;100409.97;10141756;29;20071;-77
2022/06/27 12:06:59;;;;;;;41.63;28.10;;;;;;;18.70;79.83;100426.31;10138836;29;20052;-77
2022/06/27 12:12:05;;;;;;;44.83;29.45;;;;;;;18.63;79.76;100426.16;10139750;29;20056;-77
2022/06/27 12:17:08;;;;;;;43.47;27.67;;;;;;;18.67;79.68;100432.09;10144810;29;20510;-77
2022/06/27 12:22:18;;;;;;;39.58;24.95;;;;;;;18.63;79.83;100428.06;10141575;29;20048;-77
2022/06/27 12:27:42;;;;;;;36.63;23.90;;;;;;;18.09;81.33;100434.97;10138915;29;20587;-77
2022/06/27 12:32:45;;;;;;;40.47;25.73;;;;;;;18.41;80.73;100432.38;10138900;29;20044;-77
2022/06/27 12:37:49;;;;;;;44.55;27.20;;;;;;;17.81;84.39;100425.47;10139820;29;20056;-76
2022/06/27 12:42:52;;;;;;;44.35;28.55;;;;;;;17.79;83.34;100428.34;10140206;29;20064;-77
2022/06/27 12:47:56;;;;;;;40.97;24.50;;;;;;;17.67;83.38;100440.59;10111905;29;20051;-77
2022/06/27 12:53:00;;;;;;;42.03;25.90;;;;;;;17.58;83.45;100447.00;10140003;29;20100;-77
2022/06/27 12:58:03;;;;;;;43.67;28.10;;;;;;;17.84;82.79;100434.13;10140621;29;20728;-77
2022/06/27 13:03:06;;;;;;;45.72;28.98;;;;;;;17.54;82.85;100451.09;10131815;29;21175;-77
2022/06/27 13:08:12;;;;;;;50.28;29.95;;;;;;;17.72;83.05;100465.38;10109015;29;20055;-76
2022/06/27 13:13:15;;;;;;;49.42;29.80;;;;;;;17.38;82.34;100463.63;10133089;29;20151;-75
2022/06/27 13:18:19;;;;;;;50.15;32.38;;;;;;;17.62;81.25;100459.25;10134166;29;20075;-75
2022/06/27 13:23:23;;;;;;;57.20;35.30;;;;;;;17.63;80.17;100460.94;10133274;29;20060;-76
2022/06/27 13:28:26;;;;;;;54.78;36.03;;;;;;;18.10;78.50;100469.31;10131624;29;20059;-76
2022/06/27 13:33:28;;;;;;;53.30;35.95;;;;;;;17.60;81.21;100464.00;10129889;29;20059;-75
2022/06/27 13:38:33;;;;;;;54.42;37.33;;;;;;;17.88;79.99;100449.09;10130627;29;20862;-76
2022/06/27 13:43:35;;;;;;;60.33;40.95;;;;;;;18.16;79.41;100445.19;10129880;29;20068;-76
2022/06/27 13:48:38;;;;;;;57.03;39.50;;;;;;;17.77;81.56;100446.72;10131633;29;20044;-76
2022/06/27 13:53:43;;;;;;;60.13;39.88;;;;;;;18.28;79.33;100466.38;10131257;29;20052;-75
2022/06/27 13:58:45;;;;;;;63.83;41.20;;;;;;;18.19;78.82;100466.59;10137018;29;20387;-78
2022/06/27 14:03:48;;;;;;;56.80;39.78;;;;;;;18.41;77.81;100478.59;10137520;29;20048;-77
2022/06/27 14:08:53;;;;;;;53.75;38.30;;;;;;;17.92;79.37;100491.19;10142477;29;20047;-77
2022/06/27 14:13:55;;;;;;;59.03;40.55;;;;;;;17.85;80.20;100495.63;10138405;29;20120;-77
2022/06/27 14:18:58;;;;;;;54.53;37.75;;;;;;;18.31;78.12;100497.81;10134616;29;20048;-77
2022/06/27 14:24:03;;;;;;;45.13;34.42;;;;;;;18.53;76.37;100497.09;10135310;29;20155;-77
2022/06/27 14:29:07;;;;;;;46.88;34.40;;;;;;;18.43;76.54;100499.16;10133294;29;20060;-77
2022/06/27 14:34:09;;;;;;;54.50;35.78;;;;;;;18.32;78.78;100499.50;10130999;29;20048;-77
2022/06/27 14:39:15;;;;;;;53.67;37.30;;;;;;;18.22;79.21;100498.84;10126420;29;20060;-78
2022/06/27 14:44:19;;;;;;;50.97;36.97;;;;;;;18.68;78.50;100475.47;10133059;29;20163;-77
2022/06/27 14:49:22;;;;;;;49.60;34.70;;;;;;;19.24;74.45;100478.97;10137942;29;20040;-77
2022/06/27 14:54:27;;;;;;;43.80;32.05;;;;;;;19.23;73.81;100517.28;10135573;29;20135;-77
2022/06/27 14:59:31;;;;;;;39.58;31.15;;;;;;;18.87;74.55;100539.56;10134825;29;21362;-77
2022/06/27 15:04:34;;;;;;;36.28;28.25;;;;;;;18.37;75.53;100532.47;10133253;29;20063;-77
2022/06/27 15:09:38;;;;;;;37.58;29.17;;;;;;;19.27;74.75;100528.66;10134165;29;20084;-77
2022/06/27 15:14:41;;;;;;;35.15;26.55;;;;;;;18.92;73.45;100531.69;10135539;29;20521;-78
2022/06/27 15:19:44;;;;;;;33.22;25.40;;;;;;;20.23;70.01;100525.47;10139348;29;20059;-77
2022/06/27 15:24:48;;;;;;;32.15;24.88;;;;;;;22.08;67.24;100517.22;10133699;29;20063;-75
2022/06/27 15:29:51;;;;;;;28.33;22.45;;;;;;;21.02;63.83;100536.75;10133649;29;20048;-78
2022/06/27 15:34:54;;;;;;;25.10;20.90;;;;;;;20.05;67.78;100528.53;10135399;29;20071;-78
2022/06/27 15:39:58;;;;;;;24.83;20.48;;;;;;;20.98;66.27;100524.53;10135493;29;20207;-77
2022/06/27 15:45:03;;;;;;;27.00;19.70;;;;;;;21.64;63.72;100508.13;10136551;29;20055;-78
2022/06/27 15:50:07;;;;;;;26.50;19.67;;;;;;;21.48;64.38;100508.38;10133275;29;20056;-74
2022/06/27 15:55:12;;;;;;;24.02;19.70;;;;;;;21.61;64.02;100537.72;10133831;29;20074;-75
2022/06/27 16:00:16;;;;;;;25.15;19.90;;;;;;;21.23;64.34;100543.38;10130127;29;20084;-78
2022/06/27 16:05:25;;;;;;;20.42;17.67;;;;;;;20.96;64.63;100545.72;10114471;29;20052;-77
2022/06/27 16:10:29;;;;;;;23.25;17.35;;;;;;;20.43;66.44;100553.13;10136185;29;21165;-78
2022/06/27 16:15:32;;;;;;;21.98;17.27;;;;;;;20.61;65.97;100543.72;10136653;29;20055;-78
2022/06/27 16:20:35;;;;;;;21.00;16.90;;;;;;;20.61;65.83;100538.28;10131997;29;20774;-78
2022/06/27 16:25:40;;;;;;;19.83;16.17;;;;;;;19.73;67.14;100561.47;10134102;29;20139;-77
2022/06/27 16:36:05;;;;;;;16.85;14.25;;;;;;;20.79;64.51;100550.53;10115809;29;20044;-78
2022/06/27 16:41:16;;;;;;;17.70;13.95;;;;;;;20.83;62.83;100552.88;10129557;29;20584;-77
2022/06/27 16:46:19;;;;;;;16.02;13.82;;;;;;;21.10;63.90;100549.50;10135209;29;20060;-75
2022/06/27 16:51:22;;;;;;;13.85;12.45;;;;;;;22.62;60.24;100546.69;10132819;29;20189;-77
2022/06/27 16:56:27;;;;;;;15.98;12.88;;;;;;;23.25;58.80;100540.34;10129006;29;20048;-76
2022/06/27 17:01:30;;;;;;;17.67;12.18;;;;;;;24.77;53.99;100542.50;10127595;29;20076;-76
2022/06/27 17:06:33;;;;;;;15.48;12.63;;;;;;;24.36;52.74;100549.06;10134980;29;20056;-76
2022/06/27 17:11:37;;;;;;;15.70;12.38;;;;;;;24.18;53.95;100555.16;10134695;29;20060;-77
2022/06/27 17:16:41;;;;;;;13.60;12.02;;;;;;;23.36;55.41;100568.00;10134248;29;20056;-76
2022/06/27 17:21:44;;;;;;;16.42;12.60;;;;;;;22.92;56.85;100561.00;10134653;29;20055;-76
2022/06/27 17:26:49;;;;;;;14.25;11.57;;;;;;;23.57;55.80;100569.78;10123145;29;20048;-76
2022/06/27 17:31:52;;;;;;;14.57;10.88;;;;;;;23.50;54.91;100592.75;10139430;29;21307;-76
2022/06/27 17:36:55;;;;;;;15.57;12.93;;;;;;;22.23;57.84;100593.72;10142437;29;20056;-76
2022/06/27 17:41:59;;;;;;;14.75;12.55;;;;;;;21.10;61.38;100593.22;10141468;29;20250;-76
2022/06/27 17:47:02;;;;;;;15.15;12.15;;;;;;;20.56;63.77;100607.88;10140379;29;20083;-75
2022/06/27 17:52:05;;;;;;;16.20;12.13;;;;;;;20.21;64.93;100613.94;10140352;29;20052;-76
2022/06/27 17:57:09;;;;;;;16.02;12.73;;;;;;;20.24;65.49;100611.72;10141089;29;20096;-75
2022/06/27 18:02:12;;;;;;;16.27;13.40;;;;;;;20.10;66.02;100621.53;10136033;29;20497;-76
2022/06/27 18:07:15;;;;;;;17.13;13.98;;;;;;;19.74;69.90;100634.84;10140412;29;20514;-75
2022/06/27 18:12:20;;;;;;;17.83;14.65;;;;;;;18.79;76.90;100637.53;10120962;29;20052;-78
2022/06/27 18:17:22;;;;;;;21.73;16.80;;;;;;;18.32;79.72;100649.94;10141574;29;20176;-77
2022/06/27 18:22:25;;;;;;;24.52;19.45;;;;;;;18.12;82.10;100657.53;10141650;29;20060;-78
2022/06/27 18:27:30;;;;;;;24.35;18.02;;;;;;;17.97;83.02;100655.63;10140285;29;20088;-78
2022/06/27 18:32:33;;;;;;;29.23;20.77;;;;;;;17.76;83.50;100675.91;10147574;29;20116;-77
2022/06/27 18:37:42;;;;;;;23.08;19.48;;;;;;;17.59;84.68;100669.56;10136171;29;20047;-78
2022/06/27 18:42:52;;;;;;;25.50;20.60;;;;;;;17.86;85.18;100659.50;10146614;29;20090;-79
2022/06/27 18:47:55;;;;;;;25.17;19.98;;;;;;;17.83;84.68;100666.09;10131303;29;20051;-78
2022/06/27 18:52:58;;;;;;;32.17;24.15;;;;;;;17.80;85.07;100662.84;10144666;29;20044;-79
2022/06/27 18:58:03;;;;;;;32.63;21.58;;;;;;;17.44;85.12;100674.78;10127160;29;20048;-79
2022/06/27 19:03:06;;;;;;;32.38;24.33;;;;;;;17.58;85.31;100696.88;10147994;29;20059;-79
2022/06/27 19:08:09;;;;;;;28.38;22.10;;;;;;;17.57;85.45;100682.47;10136461;29;20064;-79
2022/06/27 19:13:13;;;;;;;31.15;24.08;;;;;;;17.70;86.25;100682.88;10153920;29;20056;-78
2022/06/27 19:18:18;;;;;;;30.58;22.75;;;;;;;17.72;85.06;100682.72;10165293;29;20434;-78
2022/06/27 19:23:22;;;;;;;23.23;18.55;;;;;;;17.53;85.40;100686.53;10151863;29;20050;-77
2022/06/27 19:28:26;;;;;;;24.52;19.77;;;;;;;17.32;85.13;100681.50;10148462;29;22037;-79
2022/06/27 19:33:29;;;;;;;26.50;20.02;;;;;;;17.12;84.75;100682.72;10152671;29;20076;-79
2022/06/27 19:38:32;;;;;;;19.05;14.68;;;;;;;16.43;85.63;100703.34;10148504;29;20063;-79
2022/06/27 19:43:38;;;;;;;20.17;14.07;;;;;;;16.56;84.68;100711.94;10136448;29;20178;-78
2022/06/27 19:48:43;;;;;;;19.70;16.35;;;;;;;16.08;86.33;100727.53;10145876;29;20056;-79
2022/06/27 19:53:46;;;;;;;18.00;15.02;;;;;;;16.50;84.12;100748.66;10148649;29;20048;-79
2022/06/27 19:58:50;;;;;;;19.85;15.77;;;;;;;16.58;83.85;100766.88;10137358;29;20048;-79
2022/06/27 20:03:53;;;;;;;20.58;15.27;;;;;;;16.25;83.48;100762.94;10145370;29;20051;-77
2022/06/27 20:08:57;;;;;;;18.50;14.38;;;;;;;16.19;83.34;100788.78;10140636;29;20106;-79
2022/06/27 20:14:02;;;;;;;19.85;15.25;;;;;;;16.19;83.28;100796.06;10136225;29;20056;-76
2022/06/27 20:19:07;;;;;;;16.27;14.32;;;;;;;15.72;84.32;100802.41;10135358;29;20048;-76
2022/06/27 20:24:10;;;;;;;15.82;12.38;;;;;;;15.58;84.45;100809.16;10134921;29;20052;-77
2022/06/27 20:29:14;;;;;;;18.40;14.55;;;;;;;15.91;82.99;100804.19;10145521;29;20056;-79
2022/06/27 20:34:17;;;;;;;17.13;14.43;;;;;;;15.77;82.84;100807.38;10137889;29;20063;-76
2022/06/27 20:39:20;;;;;;;19.55;16.17;;;;;;;15.84;83.23;100798.50;10139379;29;20055;-79
2022/06/27 20:44:24;;;;;;;20.20;17.95;;;;;;;15.96;83.31;100807.28;10144063;29;20055;-80
2022/06/27 20:49:27;;;;;;;25.05;17.10;;;;;;;15.76;83.31;100801.09;10109916;29;20048;-79
2022/06/27 20:54:30;;;;;;;18.63;16.20;;;;;;;15.87;82.56;100797.34;10143287;29;20079;-79
2022/06/27 20:59:36;;;;;;;22.25;16.10;;;;;;;15.47;83.03;100810.19;10137686;29;20059;-79
2022/06/27 21:04:39;;;;;;;19.90;15.85;;;;;;;15.38;83.54;100807.47;10145044;29;20182;-79
2022/06/27 21:15:05;;;;;;;19.08;13.68;;;;;;;15.18;83.17;100821.00;10162946;29;20052;-78
2022/06/27 21:20:09;;;;;;;17.60;15.15;;;;;;;14.94;83.98;100824.13;10147284;29;20422;-78
2022/06/27 21:25:12;;;;;;;18.23;14.10;;;;;;;15.25;82.90;100819.44;10146976;29;20067;-78
2022/06/27 21:30:16;;;;;;;21.25;15.65;;;;;;;15.21;82.74;100828.84;10139449;29;20129;-78
2022/06/27 21:35:19;;;;;;;17.30;14.40;;;;;;;15.22;82.94;100833.25;10134995;29;20780;-78
2022/06/27 21:40:22;;;;;;;20.33;14.15;;;;;;;15.30;82.17;100832.53;10143876;29;20084;-78
2022/06/27 21:45:26;;;;;;;14.18;12.70;;;;;;;15.11;82.70;100830.72;10140010;29;20058;-77
2022/06/27 21:50:29;;;;;;;16.02;12.85;;;;;;;15.32;82.08;100846.78;10144469;29;20478;-78
2022/06/27 21:55:32;;;;;;;16.33;12.35;;;;;;;15.23;82.54;100850.34;10143214;29;21207;-79
2022/06/27 22:00:40;;;;;;;16.85;13.05;;;;;;;15.09;82.34;100857.06;10143313;29;20108;-78
2022/06/27 22:05:45;;;;;;;14.60;13.05;;;;;;;15.23;81.98;100870.16;10142568;29;20623;-78
2022/06/27 22:10:48;;;;;;;12.60;10.48;;;;;;;14.72;83.45;100878.50;10133815;29;20055;-78
2022/06/27 22:15:53;;;;;;;24.52;13.75;;;;;;;14.91;82.92;100875.81;10141482;29;20057;-79
2022/06/27 22:20:57;;;;;;;15.23;12.38;;;;;;;15.00;82.10;100868.69;10157793;29;20052;-79
2022/06/27 22:26:00;;;;;;;13.70;11.50;;;;;;;14.99;82.50;100889.50;10160458;29;20059;-79
2022/06/27 22:31:05;;;;;;;18.75;11.07;;;;;;;15.03;81.79;100890.09;10143982;29;20056;-80
2022/06/27 22:36:08;;;;;;;12.40;9.85;;;;;;;14.83;81.31;100898.16;10147177;29;20659;-78
2022/06/27 22:41:11;;;;;;;7.25;6.45;;;;;;;14.31;82.43;100905.50;10138315;29;20087;-79
2022/06/27 22:46:15;;;;;;;9.95;8.95;;;;;;;14.52;81.43;100901.94;10140902;29;20185;-78
2022/06/27 22:51:18;;;;;;;14.30;10.77;;;;;;;14.64;80.84;100908.94;10139310;29;20048;-78
2022/06/27 22:56:21;;;;;;;11.85;10.32;;;;;;;14.48;81.13;100911.28;10140770;29;21186;-78
2022/06/27 23:01:25;;;;;;;11.38;9.93;;;;;;;14.43;79.62;100910.88;10140444;29;21138;-77
2022/06/27 23:06:28;;;;;;;11.77;8.38;;;;;;;14.18;80.37;100909.44;10138507;29;20075;-78